Time,TemperatureF,DewpointF,PressureIn,WindDirection,WindDirectionDegrees,WindSpeedMPH,WindSpeedGustMPH,Humidity,HourlyPrecipIn,Conditions,Clouds,dailyrainin,SolarRadiationWatts/m^2,SoftwareType,DateUTC
2013-02-12 00:00:00,48.0,29.7,29.80,NW,313,20.0,20.0,49,0.00,CLR,,0.14,0.0,WeatherDisplay:10.37,2013-02-12 05:00:00,
2013-02-12 00:01:00,48.0,29.7,29.80,WNW,290,17.3,19.6,49,0.00,RA,,0.00,0.0,WeatherDisplay:10.37,2013-02-12 05:01:00,
2013-02-12 00:06:00,48.2,29.4,29.80,West,277,21.8,26.5,48,0.00,RA,,0.00,0.0,WeatherDisplay:10.37,2013-02-12 05:06:00,
2013-02-12 00:11:00,48.2,28.9,29.81,NW,312,22.0,22.0,47,0.00,CLR,,0.00,0.0,WeatherDisplay:10.37,2013-02-12 05:11:00,
2013-02-12 00:16:00,48.0,28.7,29.81,NW,319,25.2,25.2,47,0.00,CLR,,0.00,0.0,WeatherDisplay:10.37,2013-02-12 05:16:00,
2013-02-12 00:21:00,47.9,29.1,29.81,WNW,285,24.8,25.5,48,0.00,CLR,,0.00,0.0,WeatherDisplay:10.37,2013-02-12 05:21:00,
2013-02-12 00:26:00,47.7,28.9,29.81,NNW,331,22.0,25.5,48,0.00,CLR,,0.00,0.0,WeatherDisplay:10.37,2013-02-12 05:26:00,
2013-02-12 00:31:00,47.6,29.4,29.82,WNW,303,14.2,24.2,49,0.00,CLR,,0.00,0.0,WeatherDisplay:10.37,2013-02-12 05:31:00,
2013-02-12 00:36:00,47.4,29.2,29.81,NNW,344,25.4,28.8,49,0.00,CLR,,0.00,0.0,WeatherDisplay:10.37,2013-02-12 05:36:00,
2013-02-12 00:42:00,47.4,28.7,29.81,NNW,332,22.7,26.5,48,0.00,CLR,,0.00,0.0,WeatherDisplay:10.37,2013-02-12 05:42:00,
2013-02-12 00:47:00,47.3,29.1,29.81,NNW,338,14.4,22.5,49,0.00,CLR,,0.00,0.0,WeatherDisplay:10.37,2013-02-12 05:47:00,
2013-02-12 00:52:00,47.4,28.7,29.81,NW,318,19.9,19.9,48,0.00,CLR,,0.00,0.0,WeatherDisplay:10.37,2013-02-12 05:52:00,
2013-02-12 00:57:00,47.3,28.6,29.81,NW,320,24.7,28.8,48,0.00,CLR,,0.00,0.0,WeatherDisplay:10.37,2013-02-12 05:57:00,
2013-02-12 01:02:00,47.3,28.1,29.81,NW,313,15.6,25.3,47,0.00,CLR,,0.00,0.0,WeatherDisplay:10.37,2013-02-12 06:02:00,
2013-02-12 01:07:00,47.1,28.4,29.81,WNW,288,20.3,24.0,48,0.00,CLR,,0.00,0.0,WeatherDisplay:10.37,2013-02-12 06:07:00,
2013-02-12 01:12:00,47.3,28.1,29.81,NW,306,16.1,20.7,47,0.00,CLR,,0.00,0.0,WeatherDisplay:10.37,2013-02-12 06:12:00,
2013-02-12 01:17:00,47.3,25.9,29.81,WNW,293,17.8,23.0,43,0.00,CLR,,0.00,0.0,WeatherDisplay:10.37,2013-02-12 06:17:00,
2013-02-12 01:22:00,47.4,27.6,29.81,NW,320,26.4,26.4,46,0.00,CLR,,0.00,0.0,WeatherDisplay:10.37,2013-02-12 06:22:00,
2013-02-12 01:27:00,47.6,27.3,29.81,NW,307,16.1,19.6,45,0.00,CLR,,0.00,0.0,WeatherDisplay:10.37,2013-02-12 06:27:00,
2013-02-12 01:32:00,47.6,27.3,29.81,WNW,300,19.4,20.7,45,0.00,CLR,,0.00,0.0,WeatherDisplay:10.37,2013-02-12 06:32:00,
2013-02-12 01:37:00,47.4,28.2,29.82,NW,310,11.1,13.5,47,0.00,CLR,,0.00,0.0,WeatherDisplay:10.37,2013-02-12 06:37:00,
2013-02-12 01:42:00,47.3,28.1,29.81,WNW,303,11.8,13.8,47,0.00,CLR,,0.00,0.0,WeatherDisplay:10.37,2013-02-12 06:42:00,
2013-02-12 01:47:00,47.3,28.1,29.82,NW,319,13.3,13.8,47,0.00,CLR,,0.00,0.0,WeatherDisplay:10.37,2013-02-12 06:47:00,
2013-02-12 01:52:00,47.3,28.1,29.82,WNW,290,11.2,18.0,47,0.00,CLR,,0.00,0.0,WeatherDisplay:10.37,2013-02-12 06:52:00,
2013-02-12 01:57:00,47.1,28.4,29.82,NW,312,13.1,13.8,48,0.00,CLR,,0.00,0.0,WeatherDisplay:10.37,2013-02-12 06:57:00,
2013-02-12 02:02:00,47.4,28.2,29.82,WNW,290,22.4,22.4,47,0.00,CLR,,0.00,0.0,WeatherDisplay:10.37,2013-02-12 07:02:00,
2013-02-12 02:07:00,47.4,28.7,29.82,NNW,328,18.0,23.0,48,0.00,CLR,,0.00,0.0,WeatherDisplay:10.37,2013-02-12 07:07:00,
2013-02-12 02:12:00,47.3,28.6,29.83,WNW,297,15.3,18.4,48,0.00,CLR,,0.00,0.0,WeatherDisplay:10.37,2013-02-12 07:12:00,
2013-02-12 02:17:00,47.4,28.7,29.83,WNW,284,19.9,20.7,48,0.00,CLR,,0.00,0.0,WeatherDisplay:10.37,2013-02-12 07:17:00,
2013-02-12 02:22:00,47.4,28.7,29.83,WNW,302,25.6,26.5,48,0.00,CLR,,0.00,0.0,WeatherDisplay:10.37,2013-02-12 07:22:00,
2013-02-12 02:27:00,47.4,29.2,29.83,West,275,24.8,24.8,49,0.00,CLR,,0.00,0.0,WeatherDisplay:10.37,2013-02-12 07:27:00,
2013-02-12 02:32:00,47.3,29.1,29.83,WNW,291,25.4,30.0,49,0.00,CLR,,0.00,0.0,WeatherDisplay:10.37,2013-02-12 07:32:00,
2013-02-12 02:37:00,47.4,29.2,29.83,WNW,283,29.2,33.4,49,0.00,CLR,,0.00,0.0,WeatherDisplay:10.37,2013-02-12 07:37:00,
2013-02-12 02:42:00,47.3,29.1,29.83,NW,324,16.3,20.7,49,0.00,CLR,,0.00,0.0,WeatherDisplay:10.37,2013-02-12 07:42:00,
2013-02-12 02:47:00,47.1,28.9,29.83,West,269,18.7,21.0,49,0.00,CLR,,0.00,0.0,WeatherDisplay:10.37,2013-02-12 07:47:00,
2013-02-12 02:52:00,46.8,29.1,29.83,West,277,22.9,25.5,50,0.00,CLR,,0.00,0.0,WeatherDisplay:10.37,2013-02-12 07:52:00,
2013-02-12 02:57:00,46.7,29.0,29.83,West,279,20.2,23.0,50,0.00,CLR,,0.00,0.0,WeatherDisplay:10.37,2013-02-12 07:57:00,
2013-02-12 03:02:00,46.5,28.8,29.83,WNW,295,23.8,24.0,50,0.00,CLR,,0.00,0.0,WeatherDisplay:10.37,2013-02-12 08:02:00,
2013-02-12 03:07:00,46.4,28.3,29.83,WNW,303,22.2,29.9,49,0.00,CLR,,0.00,0.0,WeatherDisplay:10.37,2013-02-12 08:07:00,
2013-02-12 03:12:00,46.1,28.0,29.83,WNW,300,19.7,22.5,49,0.00,CLR,,0.00,0.0,WeatherDisplay:10.37,2013-02-12 08:12:00,
2013-02-12 03:17:00,46.2,28.1,29.83,West,269,17.5,20.7,49,0.00,CLR,,0.00,0.0,WeatherDisplay:10.37,2013-02-12 08:17:00,
2013-02-12 03:22:00,46.1,28.0,29.82,WNW,296,30.0,30.0,49,0.00,CLR,,0.00,0.0,WeatherDisplay:10.37,2013-02-12 08:22:00,
2013-02-12 03:27:00,46.1,27.5,29.83,WNW,298,16.6,18.4,48,0.00,CLR,,0.00,0.0,WeatherDisplay:10.37,2013-02-12 08:27:00,
2013-02-12 03:32:00,45.8,27.7,29.83,WNW,298,11.4,18.0,49,0.00,CLR,,0.00,0.0,WeatherDisplay:10.37,2013-02-12 08:32:00,
2013-02-12 03:37:00,45.7,27.1,29.82,WNW,300,16.6,24.0,48,0.00,CLR,,0.00,0.0,WeatherDisplay:10.37,2013-02-12 08:37:00,
2013-02-12 03:42:00,45.5,26.9,29.83,NW,309,19.4,19.6,48,0.00,CLR,,0.00,0.0,WeatherDisplay:10.37,2013-02-12 08:42:00,
2013-02-12 03:47:00,45.4,27.3,29.83,West,280,18.4,19.6,49,0.00,CLR,,0.00,0.0,WeatherDisplay:10.37,2013-02-12 08:47:00,
2013-02-12 03:52:00,45.2,26.7,29.82,West,281,15.7,23.0,48,0.00,CLR,,0.00,0.0,WeatherDisplay:10.37,2013-02-12 08:52:00,
2013-02-12 03:57:00,45.2,26.7,29.83,WSW,257,21.1,25.5,48,0.00,CLR,,0.00,0.0,WeatherDisplay:10.37,2013-02-12 08:57:00,
2013-02-12 04:02:00,45.1,26.1,29.83,WNW,284,19.4,20.7,47,0.00,CLR,,0.00,0.0,WeatherDisplay:10.37,2013-02-12 09:02:00,
2013-02-12 04:07:00,44.9,25.9,29.83,NW,311,17.0,23.0,47,0.00,CLR,,0.00,0.0,WeatherDisplay:10.37,2013-02-12 09:07:00,
2013-02-12 04:12:00,44.9,25.9,29.83,NW,309,22.3,28.5,47,0.00,FEW,,0.00,0.0,WeatherDisplay:10.37,2013-02-12 09:12:00,
2013-02-12 04:17:00,45.1,25.5,29.83,NW,304,23.7,23.7,46,0.00,FEW,,0.00,0.0,WeatherDisplay:10.37,2013-02-12 09:17:00,
2013-02-12 04:22:00,45.1,25.5,29.83,WNW,300,29.6,29.9,46,0.00,FEW,,0.00,0.0,WeatherDisplay:10.37,2013-02-12 09:22:00,
2013-02-12 04:27:00,45.2,25.1,29.83,West,266,10.1,26.5,45,0.00,FEW,,0.00,0.0,WeatherDisplay:10.37,2013-02-12 09:27:00,
2013-02-12 04:32:00,44.9,25.3,29.83,WNW,294,20.0,23.0,46,0.00,FEW,,0.00,0.0,WeatherDisplay:10.37,2013-02-12 09:32:00,
2013-02-12 04:37:00,44.9,25.3,29.83,WSW,257,15.4,18.4,46,0.00,FEW,,0.00,0.0,WeatherDisplay:10.37,2013-02-12 09:37:00,
2013-02-12 04:42:00,44.9,25.3,29.84,NW,325,17.5,23.0,46,0.00,FEW,,0.00,0.0,WeatherDisplay:10.37,2013-02-12 09:42:00,
2013-02-12 04:47:00,44.8,25.3,29.83,WNW,300,17.3,19.6,46,0.00,FEW,,0.00,0.0,WeatherDisplay:10.37,2013-02-12 09:47:00,
2013-02-12 04:52:00,44.8,25.3,29.84,NW,318,17.0,18.4,46,0.00,FEW,,0.00,0.0,WeatherDisplay:10.37,2013-02-12 09:52:00,
2013-02-12 04:57:00,44.9,25.3,29.84,NW,315,14.0,18.4,46,0.00,FEW,,0.00,0.0,WeatherDisplay:10.37,2013-02-12 09:57:00,
2013-02-12 05:02:00,44.8,25.8,29.84,NW,304,24.2,26.5,47,0.00,FEW,,0.00,0.0,WeatherDisplay:10.37,2013-02-12 10:02:00,
2013-02-12 05:07:00,44.8,25.8,29.84,NW,311,11.8,15.0,47,0.00,FEW,,0.00,0.0,WeatherDisplay:10.37,2013-02-12 10:07:00,
2013-02-12 05:12:00,44.6,25.6,29.84,NW,323,7.1,13.8,47,0.00,FEW,,0.00,0.0,WeatherDisplay:10.37,2013-02-12 10:12:00,
2013-02-12 05:17:00,44.6,25.1,29.85,NW,309,20.2,24.2,46,0.00,FEW,,0.00,0.0,WeatherDisplay:10.37,2013-02-12 10:17:00,
2013-02-12 05:22:00,44.9,25.3,29.84,NW,312,24.9,25.5,46,0.00,FEW,,0.00,0.0,WeatherDisplay:10.37,2013-02-12 10:22:00,
2013-02-12 05:27:00,44.9,25.9,29.85,WSW,258,21.5,22.5,47,0.00,FEW,,0.00,0.0,WeatherDisplay:10.37,2013-02-12 10:27:00,
2013-02-12 05:32:00,44.8,25.8,29.85,WNW,296,15.8,15.8,47,0.00,FEW,,0.00,0.0,WeatherDisplay:10.37,2013-02-12 10:32:00,
2013-02-12 05:37:00,44.6,25.6,29.85,NW,308,12.6,19.6,47,0.00,FEW,,0.00,0.0,WeatherDisplay:10.37,2013-02-12 10:37:00,
2013-02-12 05:42:00,44.3,25.8,29.85,NW,316,4.3,9.0,48,0.00,FEW,,0.00,0.0,WeatherDisplay:10.37,2013-02-12 10:42:00,
2013-02-12 05:47:00,44.2,25.7,29.85,NW,304,2.2,4.6,48,0.00,FEW,,0.00,0.0,WeatherDisplay:10.37,2013-02-12 10:47:00,
2013-02-12 05:52:00,44.2,26.2,29.85,WNW,294,1.7,9.2,49,0.00,FEW,,0.00,0.0,WeatherDisplay:10.37,2013-02-12 10:52:00,
2013-02-12 05:57:00,44.1,25.6,29.86,NW,307,14.2,18.0,48,0.00,FEW,,0.00,0.0,WeatherDisplay:10.37,2013-02-12 10:57:00,
2013-02-12 06:02:00,44.2,25.7,29.86,WNW,288,3.1,9.2,48,0.00,FEW,,0.00,0.0,WeatherDisplay:10.37,2013-02-12 11:02:00,
2013-02-12 06:07:00,44.3,25.8,29.86,NW,325,6.3,11.5,48,0.00,FEW,,0.00,0.0,WeatherDisplay:10.37,2013-02-12 11:07:00,
2013-02-12 06:12:00,44.2,26.2,29.87,NW,317,6.5,16.5,49,0.00,FEW,,0.00,0.0,WeatherDisplay:10.37,2013-02-12 11:12:00,
2013-02-12 06:17:00,44.3,25.8,29.88,NW,304,9.6,10.4,48,0.00,FEW,,0.00,0.0,WeatherDisplay:10.37,2013-02-12 11:17:00,
2013-02-12 06:22:00,44.2,25.7,29.87,WNW,296,2.8,4.6,48,0.00,FEW,,0.00,0.0,WeatherDisplay:10.37,2013-02-12 11:22:00,
2013-02-12 06:27:00,44.2,25.7,29.88,WNW,284,7.6,10.5,48,0.00,FEW,,0.00,0.0,WeatherDisplay:10.37,2013-02-12 11:27:00,
2013-02-12 06:32:00,44.2,25.7,29.88,NNW,341,11.2,15.0,48,0.00,FEW,,0.00,0.0,WeatherDisplay:10.37,2013-02-12 11:32:00,
2013-02-12 06:37:00,44.2,25.7,29.88,NW,317,11.2,15.0,48,0.00,FEW,,0.00,0.0,WeatherDisplay:10.37,2013-02-12 11:37:00,
2013-02-12 06:42:00,44.3,25.3,29.88,WNW,294,18.1,18.1,47,0.00,FEW,,0.00,0.0,WeatherDisplay:10.37,2013-02-12 11:42:00,
2013-02-12 06:47:00,44.3,25.3,29.88,WNW,293,5.4,9.0,47,0.00,FEW,,0.00,0.0,WeatherDisplay:10.37,2013-02-12 11:47:00,
2013-02-12 06:52:00,44.1,26.1,29.88,WNW,302,6.9,8.1,49,0.00,FEW,,0.00,0.0,WeatherDisplay:10.37,2013-02-12 11:52:00,
2013-02-12 06:57:00,44.1,25.6,29.88,WNW,296,12.3,12.3,48,0.00,FEW,,0.00,0.0,WeatherDisplay:10.37,2013-02-12 11:57:00,
2013-02-12 07:02:00,43.9,26.0,29.88,WNW,302,3.8,5.8,49,0.00,FEW,,0.00,0.0,WeatherDisplay:10.37,2013-02-12 12:02:00,
2013-02-12 07:07:00,43.5,25.6,29.89,WNW,293,7.2,9.2,49,0.00,FEW,,0.00,0.0,WeatherDisplay:10.37,2013-02-12 12:07:00,
2013-02-12 07:12:00,43.3,25.9,29.89,WNW,289,8.0,10.4,50,0.00,FEW,,0.00,5.0,WeatherDisplay:10.37,2013-02-12 12:12:00,
2013-02-12 07:17:00,43.3,25.9,29.89,West,274,9.4,13.8,50,0.00,FEW,,0.00,11.0,WeatherDisplay:10.37,2013-02-12 12:17:00,
2013-02-12 07:22:00,43.2,25.8,29.89,NW,311,10.2,10.5,50,0.00,FEW,,0.00,14.0,WeatherDisplay:10.37,2013-02-12 12:22:00,
2013-02-12 07:27:00,43.1,25.7,29.90,NW,304,13.7,16.5,50,0.00,FEW,,0.00,23.0,WeatherDisplay:10.37,2013-02-12 12:27:00,
2013-02-12 07:32:00,43.2,25.8,29.90,NW,319,4.1,9.2,50,0.00,FEW,,0.00,33.0,WeatherDisplay:10.37,2013-02-12 12:32:00,
2013-02-12 07:37:00,43.2,25.8,29.90,WNW,293,12.5,13.8,50,0.00,FEW,,0.00,30.0,WeatherDisplay:10.37,2013-02-12 12:37:00,
2013-02-12 07:42:00,43.1,25.7,29.90,NW,306,6.2,6.2,50,0.00,FEW,,0.00,40.0,WeatherDisplay:10.37,2013-02-12 12:42:00,
2013-02-12 07:47:00,42.8,25.9,29.90,WNW,302,1.9,4.6,51,0.00,FEW,,0.00,49.0,WeatherDisplay:10.37,2013-02-12 12:47:00,
2013-02-12 07:52:00,42.3,25.9,29.90,WNW,300,0.9,3.5,52,0.00,FEW,,0.00,42.0,WeatherDisplay:10.37,2013-02-12 12:52:00,
2013-02-12 07:57:00,42.2,25.8,29.90,NW,313,6.1,9.0,52,0.00,FEW,,0.00,83.0,WeatherDisplay:10.37,2013-02-12 12:57:00,
2013-02-12 08:02:00,42.8,25.9,29.90,WNW,298,12.6,15.0,51,0.00,FEW,,0.00,98.0,WeatherDisplay:10.37,2013-02-12 13:02:00,
2013-02-12 08:07:00,43.2,25.8,29.90,WNW,292,9.0,9.2,50,0.00,FEW,,0.00,111.0,WeatherDisplay:10.37,2013-02-12 13:07:00,
2013-02-12 08:12:00,43.6,25.7,29.91,NW,324,8.2,15.0,49,0.00,FEW,,0.00,128.0,WeatherDisplay:10.37,2013-02-12 13:12:00,
2013-02-12 08:17:00,43.8,25.4,29.91,NW,313,13.8,15.0,48,0.00,FEW,,0.00,146.0,WeatherDisplay:10.37,2013-02-12 13:17:00,
2013-02-12 08:22:00,44.1,25.1,29.91,NW,313,13.1,16.1,47,0.00,FEW,,0.00,162.0,WeatherDisplay:10.37,2013-02-12 13:22:00,
2013-02-12 08:27:00,44.3,24.8,29.91,West,279,17.4,23.0,46,0.00,FEW,,0.00,183.0,WeatherDisplay:10.37,2013-02-12 13:27:00,
2013-02-12 08:32:00,44.5,24.5,29.91,WNW,292,17.7,24.2,45,0.00,FEW,,0.00,174.0,WeatherDisplay:10.37,2013-02-12 13:32:00,
2013-02-12 08:37:00,44.6,25.1,29.91,West,278,17.1,20.7,46,0.00,FEW,,0.00,192.0,WeatherDisplay:10.37,2013-02-12 13:37:00,
2013-02-12 08:42:00,44.8,24.7,29.91,WNW,292,17.7,19.6,45,0.00,FEW,,0.00,174.0,WeatherDisplay:10.37,2013-02-12 13:42:00,
2013-02-12 08:47:00,44.9,24.8,29.91,NNW,331,17.3,19.6,45,0.00,FEW,,0.00,193.0,WeatherDisplay:10.37,2013-02-12 13:47:00,
2013-02-12 08:52:00,45.2,25.6,29.91,West,277,16.6,20.7,46,0.00,FEW,,0.00,246.0,WeatherDisplay:10.37,2013-02-12 13:52:00,
2013-02-12 08:57:00,45.2,25.1,29.92,NW,313,26.2,30.0,45,0.00,FEW,,0.00,195.0,WeatherDisplay:10.37,2013-02-12 13:57:00,
2013-02-12 09:02:00,45.2,24.6,29.92,NNW,338,24.1,28.8,44,0.00,FEW,,0.00,265.0,WeatherDisplay:10.37,2013-02-12 14:02:00,
2013-02-12 09:07:00,45.4,25.3,29.92,NW,325,19.3,19.6,45,0.00,FEW,,0.00,244.0,WeatherDisplay:10.37,2013-02-12 14:07:00,
2013-02-12 09:12:00,45.5,24.8,29.92,NW,307,16.9,19.6,44,0.00,SCT,,0.00,301.0,WeatherDisplay:10.37,2013-02-12 14:12:00,
2013-02-12 09:17:00,45.7,25.0,29.93,West,278,19.7,22.5,44,0.00,SCT,,0.00,339.0,WeatherDisplay:10.37,2013-02-12 14:17:00,
2013-02-12 09:22:00,46.0,25.3,29.93,NW,315,26.4,30.0,44,0.00,SCT,,0.00,359.0,WeatherDisplay:10.37,2013-02-12 14:22:00,
2013-02-12 09:27:00,46.1,25.4,29.93,WNW,303,19.9,20.7,44,0.00,SCT,,0.00,367.0,WeatherDisplay:10.37,2013-02-12 14:27:00,
2013-02-12 09:32:00,46.4,26.2,29.93,West,280,14.8,18.0,45,0.00,SCT,,0.00,383.0,WeatherDisplay:10.37,2013-02-12 14:32:00,
2013-02-12 09:37:00,46.7,26.5,29.93,WNW,292,22.1,22.1,45,0.00,SCT,,0.00,396.0,WeatherDisplay:10.37,2013-02-12 14:37:00,
2013-02-12 09:42:00,46.5,25.2,29.93,NNW,328,23.5,25.5,43,0.00,SCT,,0.00,408.0,WeatherDisplay:10.37,2013-02-12 14:42:00,
2013-02-12 09:47:00,46.8,24.9,29.94,WNW,282,18.6,20.7,42,0.00,SCT,,0.00,422.0,WeatherDisplay:10.37,2013-02-12 14:47:00,
2013-02-12 09:53:00,46.7,25.4,29.94,WNW,294,12.9,16.1,43,0.00,SCT,,0.00,432.0,WeatherDisplay:10.37,2013-02-12 14:53:00,
2013-02-12 09:58:00,47.1,25.2,29.94,WNW,294,22.8,22.8,42,0.00,SCT,,0.00,445.0,WeatherDisplay:10.37,2013-02-12 14:58:00,
2013-02-12 10:03:00,47.1,25.2,29.95,NW,305,20.7,20.7,42,0.00,SCT,,0.00,457.0,WeatherDisplay:10.37,2013-02-12 15:03:00,
2013-02-12 10:08:00,47.0,25.1,29.95,WNW,295,21.2,21.2,42,0.00,SCT,,0.00,466.0,WeatherDisplay:10.37,2013-02-12 15:08:00,
2013-02-12 10:13:00,47.4,26.6,29.95,WNW,292,18.2,19.5,44,0.00,SCT,,0.00,475.0,WeatherDisplay:10.37,2013-02-12 15:13:00,
2013-02-12 10:18:00,48.0,25.4,29.95,NW,315,8.6,15.0,41,0.00,SCT,,0.00,483.0,WeatherDisplay:10.37,2013-02-12 15:18:00,
2013-02-12 10:23:00,48.2,25.6,29.95,WNW,300,11.4,15.0,41,0.00,SCT,,0.00,496.0,WeatherDisplay:10.37,2013-02-12 15:23:00,
2013-02-12 10:28:00,48.2,26.2,29.95,WNW,290,11.8,16.1,42,0.00,SCT,,0.00,504.0,WeatherDisplay:10.37,2013-02-12 15:28:00,
2013-02-12 10:33:00,48.0,25.4,29.95,NW,310,7.6,11.5,41,0.00,SCT,,0.00,512.0,WeatherDisplay:10.37,2013-02-12 15:33:00,
2013-02-12 10:38:00,48.5,25.8,29.95,NW,325,17.4,18.4,41,0.00,SCT,,0.00,522.0,WeatherDisplay:10.37,2013-02-12 15:38:00,
2013-02-12 10:43:00,48.8,25.5,29.96,NW,320,13.8,16.1,40,0.00,SCT,,0.00,531.0,WeatherDisplay:10.37,2013-02-12 15:43:00,
2013-02-12 10:48:00,48.8,25.5,29.96,NW,317,20.5,20.5,40,0.00,SCT,,0.00,541.0,WeatherDisplay:10.37,2013-02-12 15:48:00,
2013-02-12 10:53:00,48.9,26.8,29.96,NW,311,13.3,16.1,42,0.00,SCT,,0.00,545.0,WeatherDisplay:10.37,2013-02-12 15:53:00,
2013-02-12 10:58:00,48.8,26.1,29.96,NNW,336,11.0,11.0,41,0.00,SCT,,0.00,550.0,WeatherDisplay:10.37,2013-02-12 15:58:00,
2013-02-12 11:03:00,48.9,26.2,29.96,NNW,340,9.9,15.0,41,0.00,SCT,,0.00,557.0,WeatherDisplay:10.37,2013-02-12 16:03:00,
2013-02-12 11:08:00,49.5,26.7,29.96,NNW,327,11.9,16.5,41,0.00,SCT,,0.00,564.0,WeatherDisplay:10.37,2013-02-12 16:08:00,
2013-02-12 11:13:00,49.6,26.8,29.95,NW,307,11.1,15.0,41,0.00,SCT,,0.00,571.0,WeatherDisplay:10.37,2013-02-12 16:13:00,
2013-02-12 11:18:00,49.8,26.4,29.95,North,355,19.8,20.7,40,0.00,SCT,,0.00,577.0,WeatherDisplay:10.37,2013-02-12 16:18:00,
2013-02-12 11:23:00,49.6,26.8,29.95,North,351,11.6,11.6,41,0.00,SCT,,0.00,578.0,WeatherDisplay:10.37,2013-02-12 16:23:00,
2013-02-12 11:28:00,49.9,25.9,29.95,NNW,344,13.5,15.0,39,0.00,SCT,,0.00,585.0,WeatherDisplay:10.37,2013-02-12 16:28:00,
2013-02-12 11:33:00,50.2,26.2,29.94,West,277,22.5,22.5,39,0.00,SCT,,0.00,589.0,WeatherDisplay:10.37,2013-02-12 16:33:00,
2013-02-12 11:38:00,49.9,25.3,29.95,NW,310,8.5,15.0,38,0.00,SCT,,0.00,592.0,WeatherDisplay:10.37,2013-02-12 16:38:00,
2013-02-12 11:43:00,50.4,27.6,29.95,NNW,346,11.3,21.0,41,0.00,SCT,,0.00,596.0,WeatherDisplay:10.37,2013-02-12 16:43:00,
2013-02-12 11:48:00,50.8,26.7,29.95,WNW,285,11.3,12.0,39,0.00,SCT,,0.00,603.0,WeatherDisplay:10.37,2013-02-12 16:48:00,
2013-02-12 11:53:00,50.8,26.1,29.95,NW,317,14.8,18.4,38,0.00,SCT,,0.00,603.0,WeatherDisplay:10.37,2013-02-12 16:53:00,
2013-02-12 11:58:00,50.8,25.4,29.94,NNW,328,19.3,19.3,37,0.00,SCT,,0.00,605.0,WeatherDisplay:10.37,2013-02-12 16:58:00,
2013-02-12 12:03:00,50.8,25.4,29.94,WNW,293,20.9,20.9,37,0.00,SCT,,0.00,608.0,WeatherDisplay:10.37,2013-02-12 17:03:00,
2013-02-12 12:08:00,51.3,27.8,29.94,NW,323,19.2,19.2,40,0.00,SCT,,0.00,608.0,WeatherDisplay:10.37,2013-02-12 17:08:00,
2013-02-12 12:13:00,51.4,26.6,29.94,West,276,22.5,22.5,38,0.00,SCT,,0.00,612.0,WeatherDisplay:10.37,2013-02-12 17:13:00,
2013-02-12 12:18:00,51.6,25.5,29.94,NW,309,18.9,19.6,36,0.00,SCT,,0.00,613.0,WeatherDisplay:10.37,2013-02-12 17:18:00,
2013-02-12 12:23:00,51.9,27.1,29.93,NW,321,11.6,11.6,38,0.00,SCT,,0.00,612.0,WeatherDisplay:10.37,2013-02-12 17:23:00,
2013-02-12 12:28:00,51.9,26.4,29.93,NW,316,14.4,16.5,37,0.00,SCT,,0.00,612.0,WeatherDisplay:10.37,2013-02-12 17:28:00,
2013-02-12 12:33:00,51.4,26.0,29.93,WNW,293,11.4,13.8,37,0.00,SCT,,0.00,610.0,WeatherDisplay:10.37,2013-02-12 17:33:00,
2013-02-12 12:38:00,52.0,26.5,29.93,NW,306,11.6,16.1,37,0.00,SCT,,0.00,610.0,WeatherDisplay:10.37,2013-02-12 17:38:00,
2013-02-12 12:43:00,51.9,26.4,29.93,NW,324,16.9,19.6,37,0.00,SCT,,0.00,610.0,WeatherDisplay:10.37,2013-02-12 17:43:00,
2013-02-12 12:48:00,52.0,27.1,29.93,NNW,334,16.8,19.6,38,0.00,SCT,,0.00,608.0,WeatherDisplay:10.37,2013-02-12 17:48:00,
2013-02-12 12:53:00,52.2,28.0,29.93,NNW,348,10.7,13.8,39,0.00,SCT,,0.00,605.0,WeatherDisplay:10.37,2013-02-12 17:53:00,
2013-02-12 12:58:00,52.6,27.0,29.92,WNW,296,15.1,18.4,37,0.00,SCT,,0.00,601.0,WeatherDisplay:10.37,2013-02-12 17:58:00,
2013-02-12 13:03:00,52.5,26.3,29.92,WNW,299,9.2,13.8,36,0.00,CLR,,0.00,598.0,WeatherDisplay:10.37,2013-02-12 18:03:00,
2013-02-12 13:08:00,52.5,26.9,29.91,NW,326,21.3,21.3,37,0.00,CLR,,0.00,594.0,WeatherDisplay:10.37,2013-02-12 18:08:00,
2013-02-12 13:13:00,52.3,27.4,29.91,WNW,284,14.9,18.4,38,0.00,CLR,,0.00,589.0,WeatherDisplay:10.37,2013-02-12 18:13:00,
2013-02-12 13:18:00,52.5,27.6,29.91,NW,323,15.9,18.4,38,0.00,CLR,,0.00,587.0,WeatherDisplay:10.37,2013-02-12 18:18:00,
2013-02-12 13:23:00,52.3,27.4,29.90,NW,319,18.2,18.4,38,0.00,CLR,,0.00,584.0,WeatherDisplay:10.37,2013-02-12 18:23:00,
2013-02-12 13:28:00,52.5,27.6,29.90,NW,313,16.5,16.5,38,0.00,CLR,,0.00,577.0,WeatherDisplay:10.37,2013-02-12 18:28:00,
2013-02-12 13:33:00,52.6,27.7,29.90,NNW,333,6.2,9.2,38,0.00,CLR,,0.00,575.0,WeatherDisplay:10.37,2013-02-12 18:33:00,
2013-02-12 13:38:00,52.8,27.2,29.89,WNW,298,4.9,9.2,37,0.00,CLR,,0.00,564.0,WeatherDisplay:10.37,2013-02-12 18:38:00,
2013-02-12 13:43:00,53.1,28.1,29.89,NW,325,13.3,15.0,38,0.00,CLR,,0.00,563.0,WeatherDisplay:10.37,2013-02-12 18:43:00,
2013-02-12 13:48:00,53.2,28.2,29.88,West,277,9.5,10.5,38,0.00,CLR,,0.00,555.0,WeatherDisplay:10.37,2013-02-12 18:48:00,
2013-02-12 13:53:00,53.5,27.2,29.90,NW,304,13.8,15.0,36,0.00,CLR,,0.00,547.0,WeatherDisplay:10.37,2013-02-12 18:53:00,
2013-02-12 13:58:00,53.3,26.3,29.90,WNW,285,7.7,11.5,35,0.00,CLR,,0.00,536.0,WeatherDisplay:10.37,2013-02-12 18:58:00,
2013-02-12 14:03:00,53.3,27.0,29.89,SW,235,8.5,10.5,36,0.00,CLR,,0.00,533.0,WeatherDisplay:10.37,2013-02-12 19:03:00,
2013-02-12 14:08:00,53.3,26.3,29.89,WNW,294,11.7,15.0,35,0.00,CLR,,0.00,522.0,WeatherDisplay:10.37,2013-02-12 19:08:00,
2013-02-12 14:13:00,53.5,26.5,29.88,NNW,333,8.6,10.4,35,0.00,FEW,,0.00,513.0,WeatherDisplay:10.37,2013-02-12 19:13:00,
2013-02-12 14:18:00,53.6,28.6,29.87,NNW,331,9.0,10.5,38,0.00,FEW,,0.00,506.0,WeatherDisplay:10.37,2013-02-12 19:18:00,
2013-02-12 14:23:00,53.6,27.9,29.86,NW,313,4.7,6.0,37,0.00,FEW,,0.00,497.0,WeatherDisplay:10.37,2013-02-12 19:23:00,
2013-02-12 14:28:00,54.2,30.4,29.84,NW,320,12.0,15.0,40,0.00,FEW,,0.00,487.0,WeatherDisplay:10.37,2013-02-12 19:28:00,
2013-02-12 14:33:00,53.8,27.4,29.83,NNW,333,11.3,15.0,36,0.00,FEW,,0.00,480.0,WeatherDisplay:10.37,2013-02-12 19:33:00,
2013-02-12 14:38:00,53.5,27.8,29.83,WSW,237,5.0,8.1,37,0.00,FEW,,0.00,466.0,WeatherDisplay:10.37,2013-02-12 19:38:00,
2013-02-12 14:43:00,53.8,27.4,29.82,NNW,333,11.5,15.0,36,0.00,FEW,,0.00,455.0,WeatherDisplay:10.37,2013-02-12 19:43:00,
2013-02-12 14:48:00,53.8,28.1,29.82,WNW,299,11.2,15.0,37,0.00,FEW,,0.00,443.0,WeatherDisplay:10.37,2013-02-12 19:48:00,
2013-02-12 14:53:00,53.6,27.3,29.82,NW,311,11.3,15.0,36,0.00,FEW,,0.00,434.0,WeatherDisplay:10.37,2013-02-12 19:53:00,
2013-02-12 14:58:00,53.6,26.6,29.82,WNW,303,6.7,9.2,35,0.00,FEW,,0.00,422.0,WeatherDisplay:10.37,2013-02-12 19:58:00,
2013-02-12 15:03:00,53.8,27.4,29.82,NW,323,9.1,10.5,36,0.00,CLR,,0.00,410.0,WeatherDisplay:10.37,2013-02-12 20:03:00,
2013-02-12 15:08:00,53.8,26.1,29.82,West,261,6.6,9.2,34,0.00,CLR,,0.00,401.0,WeatherDisplay:10.37,2013-02-12 20:08:00,
2013-02-12 15:13:00,54.1,27.0,29.84,WSW,257,1.6,4.5,35,0.00,CLR,,0.00,385.0,WeatherDisplay:10.37,2013-02-12 20:13:00,
2013-02-12 15:18:00,54.5,26.7,29.86,WNW,296,7.9,7.9,34,0.00,CLR,,0.00,373.0,WeatherDisplay:10.37,2013-02-12 20:18:00,
2013-02-12 15:23:00,54.4,25.1,29.86,NW,325,0.8,3.5,32,0.00,CLR,,0.00,359.0,WeatherDisplay:10.37,2013-02-12 20:23:00,
2013-02-12 15:28:00,54.5,26.0,29.87,NW,320,8.6,10.4,33,0.00,CLR,,0.00,345.0,WeatherDisplay:10.37,2013-02-12 20:28:00,
2013-02-12 15:33:00,54.5,26.7,29.88,West,261,7.2,8.1,34,0.00,CLR,,0.00,332.0,WeatherDisplay:10.37,2013-02-12 20:33:00,
2013-02-12 15:38:00,54.5,24.4,29.89,West,262,10.7,11.5,31,0.00,CLR,,0.00,316.0,WeatherDisplay:10.37,2013-02-12 20:38:00,
2013-02-12 15:43:00,54.5,24.4,29.89,WSW,254,7.4,8.1,31,0.00,CLR,,0.00,304.0,WeatherDisplay:10.37,2013-02-12 20:43:00,
2013-02-12 15:49:00,54.7,24.6,29.90,SW,233,4.4,9.2,31,0.00,CLR,,0.00,287.0,WeatherDisplay:10.37,2013-02-12 20:49:00,
2013-02-12 15:54:00,55.0,26.4,29.90,WSW,243,8.2,10.5,33,0.00,CLR,,0.00,276.0,WeatherDisplay:10.37,2013-02-12 20:54:00,
2013-02-12 15:59:00,55.0,25.6,29.89,WSW,242,10.6,10.6,32,0.00,CLR,,0.00,262.0,WeatherDisplay:10.37,2013-02-12 20:59:00,
2013-02-12 16:04:00,55.0,24.9,29.88,WSW,245,5.0,8.1,31,0.00,SCT,,0.00,223.0,WeatherDisplay:10.37,2013-02-12 21:04:00,
2013-02-12 16:09:00,55.1,23.4,29.88,WSW,250,2.8,5.8,29,0.00,SCT,,0.00,214.0,WeatherDisplay:10.37,2013-02-12 21:09:00,
2013-02-12 16:14:00,55.3,24.4,29.88,West,275,6.6,9.2,30,0.00,SCT,,0.00,174.0,WeatherDisplay:10.37,2013-02-12 21:14:00,
2013-02-12 16:19:00,55.1,23.4,29.88,WNW,302,6.5,9.2,29,0.00,SCT,,0.00,195.0,WeatherDisplay:10.37,2013-02-12 21:19:00,
2013-02-12 16:24:00,55.1,24.2,29.88,WNW,284,6.5,8.1,30,0.00,SCT,,0.00,162.0,WeatherDisplay:10.37,2013-02-12 21:24:00,
2013-02-12 16:29:00,55.1,23.4,29.88,WNW,292,5.4,9.2,29,0.00,SCT,,0.00,160.0,WeatherDisplay:10.37,2013-02-12 21:29:00,
2013-02-12 16:34:00,55.0,22.4,29.88,WNW,283,5.9,10.4,28,0.00,SCT,,0.00,144.0,WeatherDisplay:10.37,2013-02-12 21:34:00,
2013-02-12 16:39:00,54.8,23.9,29.87,NW,321,8.3,9.2,30,0.00,SCT,,0.00,127.0,WeatherDisplay:10.37,2013-02-12 21:39:00,
2013-02-12 16:44:00,54.5,24.4,29.87,NNW,333,6.0,6.0,31,0.00,SCT,,0.00,104.0,WeatherDisplay:10.37,2013-02-12 21:44:00,
2013-02-12 16:49:00,54.5,22.0,29.87,WNW,298,9.0,9.2,28,0.00,SCT,,0.00,77.0,WeatherDisplay:10.37,2013-02-12 21:49:00,
2013-02-12 16:54:00,54.5,22.0,29.88,NW,315,5.0,5.8,28,0.00,SCT,,0.00,37.0,WeatherDisplay:10.37,2013-02-12 21:54:00,
2013-02-12 16:59:00,53.9,21.5,29.88,West,273,4.1,8.1,28,0.00,SCT,,0.00,30.0,WeatherDisplay:10.37,2013-02-12 21:59:00,
2013-02-12 17:04:00,53.5,21.2,29.88,WNW,292,1.4,4.6,28,0.00,BKN,,0.00,28.0,WeatherDisplay:10.37,2013-02-12 22:04:00,
2013-02-12 17:09:00,52.9,22.3,29.89,WNW,292,0.2,1.5,30,0.00,BKN,,0.00,26.0,WeatherDisplay:10.37,2013-02-12 22:09:00,
2013-02-12 17:14:00,52.5,22.7,29.89,WNW,292,0.0,0.0,31,0.00,BKN,,0.00,28.0,WeatherDisplay:10.37,2013-02-12 22:14:00,
2013-02-12 17:19:00,51.9,22.2,29.89,WNW,292,0.2,4.6,31,0.00,BKN,,0.00,26.0,WeatherDisplay:10.37,2013-02-12 22:19:00,
2013-02-12 17:24:00,51.4,21.7,29.90,WNW,292,0.0,1.1,31,0.00,BKN,,0.00,21.0,WeatherDisplay:10.37,2013-02-12 22:24:00,
2013-02-12 17:29:00,51.1,22.2,29.90,WNW,292,0.0,0.0,32,0.00,BKN,,0.00,16.0,WeatherDisplay:10.37,2013-02-12 22:29:00,
2013-02-12 17:34:00,50.4,22.3,29.90,WNW,292,0.0,1.1,33,0.00,BKN,,0.00,11.0,WeatherDisplay:10.37,2013-02-12 22:34:00,
2013-02-12 17:39:00,49.8,22.5,29.90,WNW,292,0.0,0.0,34,0.00,BKN,,0.00,5.0,WeatherDisplay:10.37,2013-02-12 22:39:00,
2013-02-12 17:44:00,49.2,22.7,29.90,WNW,292,0.0,0.0,35,0.00,BKN,,0.00,0.0,WeatherDisplay:10.37,2013-02-12 22:44:00,
2013-02-12 17:49:00,48.8,22.3,29.91,WNW,292,0.0,0.0,35,0.00,BKN,,0.00,0.0,WeatherDisplay:10.37,2013-02-12 22:49:00,
2013-02-12 17:54:00,48.3,22.5,29.91,WNW,292,0.0,0.0,36,0.00,BKN,,0.00,0.0,WeatherDisplay:10.37,2013-02-12 22:54:00,
2013-02-12 17:59:00,47.6,23.2,29.91,WNW,292,0.1,1.5,38,0.00,BKN,,0.00,0.0,WeatherDisplay:10.37,2013-02-12 22:59:00,
2013-02-12 18:04:00,46.8,24.3,29.91,WNW,292,0.0,1.1,41,0.00,BKN,,0.00,0.0,WeatherDisplay:10.37,2013-02-12 23:04:00,
2013-02-12 18:09:00,45.8,24.0,29.91,WNW,292,0.1,1.1,42,0.00,BKN,,0.00,0.0,WeatherDisplay:10.37,2013-02-12 23:09:00,
2013-02-12 18:14:00,45.1,24.5,29.91,WNW,292,0.8,1.5,44,0.00,BKN,,0.00,0.0,WeatherDisplay:10.37,2013-02-12 23:14:00,
2013-02-12 18:19:00,44.3,23.7,29.91,WNW,292,0.2,1.5,44,0.00,BKN,,0.00,0.0,WeatherDisplay:10.37,2013-02-12 23:19:00,
2013-02-12 18:24:00,44.2,24.7,29.91,WNW,292,1.2,3.5,46,0.00,BKN,,0.00,0.0,WeatherDisplay:10.37,2013-02-12 23:24:00,
2013-02-12 19:30:00,46.1,21.9,29.91,NW,307,25.2,25.2,38,0.00,CLR,,0.00,0.0,WeatherDisplay:10.37,2013-02-13 00:30:00,
2013-02-12 19:35:00,46.1,21.9,29.90,NW,307,0.0,0.0,38,0.00,BKN,,0.00,0.0,WeatherDisplay:10.37,2013-02-13 00:35:00,
2013-02-12 19:40:00,46.1,22.5,29.90,NW,307,0.8,1.5,39,0.00,BKN,,0.00,0.0,WeatherDisplay:10.37,2013-02-13 00:40:00,
2013-02-12 19:45:00,45.7,22.1,29.90,NW,316,1.6,3.5,39,0.00,BKN,,0.00,0.0,WeatherDisplay:10.37,2013-02-13 00:45:00,
2013-02-12 19:50:00,44.2,22.0,29.90,North,355,1.4,3.5,41,0.00,BKN,,0.00,0.0,WeatherDisplay:10.37,2013-02-13 00:50:00,
2013-02-12 19:55:00,43.1,22.1,29.91,North,355,0.0,1.1,43,0.00,BKN,,0.00,0.0,WeatherDisplay:10.37,2013-02-13 00:55:00,
2013-02-12 20:00:00,42.6,22.2,29.91,North,355,0.0,0.0,44,0.00,BKN,,0.00,0.0,WeatherDisplay:10.37,2013-02-13 01:00:00,
2013-02-12 20:05:00,42.2,22.4,29.90,North,355,0.0,0.0,45,0.00,BKN,,0.00,0.0,WeatherDisplay:10.37,2013-02-13 01:05:00,
2013-02-12 20:10:00,41.2,22.5,29.89,North,355,0.1,1.1,47,0.00,BKN,,0.00,0.0,WeatherDisplay:10.37,2013-02-13 01:10:00,
2013-02-12 20:15:00,40.5,23.3,29.90,North,355,0.2,3.5,50,0.00,BKN,,0.00,0.0,WeatherDisplay:10.37,2013-02-13 01:15:00,
2013-02-12 20:20:00,39.6,23.4,29.89,North,355,0.0,0.0,52,0.00,BKN,,0.00,0.0,WeatherDisplay:10.37,2013-02-13 01:20:00,
2013-02-12 20:25:00,40.2,23.5,29.89,North,355,0.1,1.5,51,0.00,BKN,,0.00,0.0,WeatherDisplay:10.37,2013-02-13 01:25:00,
2013-02-12 20:30:00,41.8,23.5,29.89,North,360,0.2,1.5,48,0.00,BKN,,0.00,0.0,WeatherDisplay:10.37,2013-02-13 01:30:00,
2013-02-12 20:35:00,41.9,24.1,29.89,East,80,7.2,8.1,49,0.00,BKN,,0.00,0.0,WeatherDisplay:10.37,2013-02-13 01:35:00,
2013-02-12 20:40:00,41.9,24.1,29.89,East,80,0.8,3.5,49,0.00,BKN,,0.00,0.0,WeatherDisplay:10.37,2013-02-13 01:40:00,
2013-02-12 20:45:00,41.9,24.1,29.89,East,80,0.5,3.5,49,0.00,BKN,,0.00,0.0,WeatherDisplay:10.37,2013-02-13 01:45:00,
2013-02-12 20:50:00,41.8,24.5,29.89,East,80,0.0,0.0,50,0.00,BKN,,0.00,0.0,WeatherDisplay:10.37,2013-02-13 01:50:00,
2013-02-12 20:55:00,41.3,24.5,29.89,East,80,0.0,0.0,51,0.00,BKN,,0.00,0.0,WeatherDisplay:10.37,2013-02-13 01:55:00,
2013-02-12 21:00:00,40.2,24.4,29.89,East,80,0.1,1.1,53,0.00,BKN,,0.00,0.0,WeatherDisplay:10.37,2013-02-13 02:00:00,
2013-02-12 21:05:00,39.8,25.4,29.89,East,80,0.3,1.5,56,0.00,CLR,,0.00,0.0,WeatherDisplay:10.37,2013-02-13 02:05:00,
2013-02-12 21:10:00,40.5,25.6,29.89,East,80,1.9,4.5,55,0.00,CLR,,0.00,0.0,WeatherDisplay:10.37,2013-02-13 02:10:00,
2013-02-12 21:15:00,39.9,25.5,29.90,East,80,0.0,1.1,56,0.00,CLR,,0.00,0.0,WeatherDisplay:10.37,2013-02-13 02:15:00,
2013-02-12 21:20:00,38.8,24.9,29.90,East,80,0.0,0.0,57,0.00,CLR,,0.00,0.0,WeatherDisplay:10.37,2013-02-13 02:20:00,
2013-02-12 21:25:00,38.2,25.1,29.90,East,80,0.0,0.0,59,0.00,CLR,,0.00,0.0,WeatherDisplay:10.37,2013-02-13 02:25:00,
2013-02-12 21:30:00,37.9,25.6,29.90,East,80,0.0,1.1,61,0.00,CLR,,0.00,0.0,WeatherDisplay:10.37,2013-02-13 02:30:00,
2013-02-12 21:35:00,38.2,25.5,29.90,East,80,0.1,0.0,60,0.00,CLR,,0.00,0.0,WeatherDisplay:10.37,2013-02-13 02:35:00,
2013-02-12 21:40:00,39.2,25.6,29.90,East,80,1.5,4.6,58,0.00,CLR,,0.00,0.0,WeatherDisplay:10.37,2013-02-13 02:40:00,
2013-02-12 21:45:00,39.3,25.7,29.90,East,80,0.0,0.0,58,0.00,CLR,,0.00,0.0,WeatherDisplay:10.37,2013-02-13 02:45:00,
2013-02-12 21:51:00,38.3,25.6,29.91,East,80,5.4,7.5,60,0.00,CLR,,0.00,0.0,WeatherDisplay:10.37,2013-02-13 02:51:00,
2013-02-12 21:56:00,39.2,26.1,29.91,East,80,2.9,3.5,59,0.00,CLR,,0.00,0.0,WeatherDisplay:10.37,2013-02-13 02:56:00,
2013-02-12 22:01:00,39.3,25.7,29.91,East,80,0.0,0.0,58,0.00,CLR,,0.00,0.0,WeatherDisplay:10.37,2013-02-13 03:01:00,
2013-02-12 22:06:00,39.1,26.0,29.90,East,80,0.0,1.1,59,0.00,CLR,,0.00,0.0,WeatherDisplay:10.37,2013-02-13 03:06:00,
2013-02-12 22:11:00,38.9,25.8,29.90,East,80,0.0,0.0,59,0.00,BKN,,0.00,0.0,WeatherDisplay:10.37,2013-02-13 03:11:00,
2013-02-12 22:16:00,38.3,25.6,29.90,East,80,0.0,0.0,60,0.00,BKN,,0.00,0.0,WeatherDisplay:10.37,2013-02-13 03:16:00,
2013-02-12 22:21:00,37.9,25.6,29.91,East,80,0.0,0.0,61,0.00,BKN,,0.00,0.0,WeatherDisplay:10.37,2013-02-13 03:21:00,
2013-02-12 22:26:00,37.3,25.5,29.91,East,80,0.0,0.0,62,0.00,BKN,,0.00,0.0,WeatherDisplay:10.37,2013-02-13 03:26:00,
2013-02-12 22:31:00,36.8,25.8,29.91,East,80,0.0,0.0,64,0.00,BKN,,0.00,0.0,WeatherDisplay:10.37,2013-02-13 03:31:00,
2013-02-12 22:36:00,36.0,25.4,29.91,East,80,0.0,0.0,65,0.00,BKN,,0.00,0.0,WeatherDisplay:10.37,2013-02-13 03:36:00,
2013-02-12 22:41:00,35.3,25.1,29.91,East,80,0.0,0.0,66,0.00,BKN,,0.00,0.0,WeatherDisplay:10.37,2013-02-13 03:41:00,
2013-02-12 22:46:00,34.9,25.0,29.91,East,80,0.0,0.0,67,0.00,BKN,,0.00,0.0,WeatherDisplay:10.37,2013-02-13 03:46:00,
2013-02-12 22:51:00,34.4,24.9,29.91,East,80,0.0,0.0,68,0.00,BKN,,0.00,0.0,WeatherDisplay:10.37,2013-02-13 03:51:00,
2013-02-12 22:56:00,34.0,25.6,29.91,East,80,0.0,1.1,71,0.00,BKN,,0.00,0.0,WeatherDisplay:10.37,2013-02-13 03:56:00,
2013-02-12 23:01:00,33.8,25.7,29.91,East,80,0.0,0.0,72,0.00,BKN,,0.00,0.0,WeatherDisplay:10.37,2013-02-13 04:01:00,
2013-02-12 23:06:00,33.5,25.4,29.91,East,80,0.0,0.0,72,0.00,BKN,,0.00,0.0,WeatherDisplay:10.37,2013-02-13 04:06:00,
2013-02-12 23:11:00,33.2,25.5,29.91,East,80,0.0,0.0,73,0.00,BKN,,0.00,0.0,WeatherDisplay:10.37,2013-02-13 04:11:00,
2013-02-12 23:16:00,32.9,25.2,29.91,East,80,0.0,0.0,73,0.00,BKN,,0.00,0.0,WeatherDisplay:10.37,2013-02-13 04:16:00,
2013-02-12 23:21:00,32.5,24.8,29.91,East,80,0.0,0.0,73,0.00,BKN,,0.00,0.0,WeatherDisplay:10.37,2013-02-13 04:21:00,
2013-02-12 23:26:00,32.1,24.4,29.91,East,80,0.0,0.0,73,0.00,BKN,,0.00,0.0,WeatherDisplay:10.37,2013-02-13 04:26:00,
2013-02-12 23:31:00,31.8,24.5,29.91,East,80,0.0,0.0,74,0.00,BKN,,0.00,0.0,WeatherDisplay:10.37,2013-02-13 04:31:00,
2013-02-12 23:36:00,31.6,24.3,29.91,East,80,0.0,0.0,74,0.00,BKN,,0.00,0.0,WeatherDisplay:10.37,2013-02-13 04:36:00,
2013-02-12 23:41:00,31.3,24.3,29.91,East,80,0.0,0.0,75,0.00,BKN,,0.00,0.0,WeatherDisplay:10.37,2013-02-13 04:41:00,
2013-02-12 23:46:00,31.2,24.5,29.91,East,80,0.0,0.0,76,0.00,BKN,,0.00,0.0,WeatherDisplay:10.37,2013-02-13 04:46:00,
2013-02-12 23:51:00,30.9,24.2,29.91,East,80,0.0,0.0,76,0.00,BKN,,0.00,0.0,WeatherDisplay:10.37,2013-02-13 04:51:00,
2013-02-12 23:56:00,30.9,24.5,29.91,East,80,0.0,0.0,77,0.00,BKN,,0.00,0.0,WeatherDisplay:10.37,2013-02-13 04:56:00,